Decoded Metar for LYVR (VRSAC in SERBIA) (IATA:N/A) | Meteo·Mobile Aviation Weather
aviador You're here:

LYVR Decoded Metar

VRSAC in SERBIA
Report Time2018-08-22 04:00:00
UTC Time2018-08-22 04:29:27
Flight Rules vfr VFR
WindVRB at 02 kt
Visibility9999 m
Phenomena:N/A
Clouds:N/A
Expected CloudBase > 800 ft AGL from Temp-Dew spread
CeilingNone
Temp16°C (ISA +2)
Dew Point14°C (88% RH)
QNH1017 hPa
Density Alt541 ft
Elevation279 ft
Report Wrong Elevation
Raw Report
METAR LYVR 220400Z VRB02KT CAVOK 16/14 Q1017 NOSIG=

Extra information for LYVR:More info

Metar Taf Metar & Taf Last 4 Metars F.Rules Stats Wind Profile Meteogram Temp Stats Airport Information Weather charts Add Link Nearby VenuesMetar ALERT Operation Metar Decoded Social comments